Time;durP1;ratioP1;P1;durP2;ratioP2;P2;SDS_P1;SDS_P2;PMS_P1;PMS_P2;Temp;Humidity;BMP_temperature;BMP_pressure;BME280_temperature;BME280_humidity;BME280_pressure;Samples;Min_cycle;Max_cycle;Signal;HPM_P1;HPM_P2
2023/10/21 00:00:28;;;;;;;5.00;1.58;;;12.70;99.90;;;;;;5020075;28;20033;-53
2023/10/21 00:02:54;;;;;;;3.90;1.40;;;12.70;99.90;;;;;;5037691;28;20033;-52
2023/10/21 00:05:20;;;;;;;3.13;1.33;;;12.60;99.90;;;;;;5020078;28;20512;-53
2023/10/21 00:07:45;;;;;;;2.65;1.27;;;12.60;99.90;;;;;;5037486;28;20060;-54
2023/10/21 00:10:11;;;;;;;2.50;1.45;;;12.60;99.90;;;;;;5037044;28;20067;-52
2023/10/21 00:12:37;;;;;;;4.93;1.50;;;12.50;99.90;;;;;;5037227;28;20116;-53
2023/10/21 00:15:05;;;;;;;4.82;1.60;;;12.50;99.90;;;;;;5037602;28;20033;-54
2023/10/21 00:17:30;;;;;;;5.43;1.63;;;12.50;99.90;;;;;;5037723;28;20036;-53
2023/10/21 00:19:56;;;;;;;4.47;1.50;;;12.50;99.90;;;;;;5037014;28;20030;-54
2023/10/21 00:22:22;;;;;;;3.67;1.17;;;12.60;99.90;;;;;;5037233;28;20344;-52
2023/10/21 00:24:47;;;;;;;4.80;1.73;;;12.60;99.90;;;;;;5019166;28;20034;-49
2023/10/21 00:27:13;;;;;;;3.10;1.33;;;12.60;99.90;;;;;;5036290;28;20036;-53
2023/10/21 00:29:39;;;;;;;2.47;1.40;;;12.70;99.90;;;;;;5003398;28;20033;-53
2023/10/21 00:32:05;;;;;;;3.13;1.38;;;12.70;99.90;;;;;;5019879;28;20026;-52
2023/10/21 00:34:31;;;;;;;2.95;1.30;;;12.70;99.90;;;;;;5018386;28;20033;-53
2023/10/21 00:36:57;;;;;;;3.30;1.10;;;12.70;99.90;;;;;;5037209;28;20021;-53
2023/10/21 00:39:23;;;;;;;1.83;1.20;;;12.70;99.90;;;;;;5019372;28;20091;-54
2023/10/21 00:41:48;;;;;;;1.88;0.88;;;12.70;99.90;;;;;;5019529;28;20132;-51
2023/10/21 00:44:14;;;;;;;2.03;1.30;;;12.80;99.90;;;;;;5036668;28;20032;-55
2023/10/21 00:46:43;;;;;;;1.98;1.02;;;12.80;99.90;;;;;;5018872;28;20056;-51
2023/10/21 00:49:09;;;;;;;2.55;1.27;;;12.80;99.90;;;;;;5018430;28;20482;-55
2023/10/21 00:51:37;;;;;;;2.80;0.95;;;12.90;99.90;;;;;;5019122;28;20395;-52
2023/10/21 00:54:03;;;;;;;1.92;0.98;;;12.80;99.90;;;;;;5019002;28;20375;-54
2023/10/21 00:56:29;;;;;;;3.90;0.85;;;12.90;99.90;;;;;;5019484;28;20044;-55
2023/10/21 00:58:56;;;;;;;3.70;0.90;;;13.00;99.90;;;;;;5002795;28;20021;-55
2023/10/21 01:01:21;;;;;;;1.67;0.90;;;13.00;99.90;;;;;;5018720;28;20493;-55
2023/10/21 01:03:47;;;;;;;2.50;1.10;;;13.00;99.90;;;;;;5018355;28;20041;-54
2023/10/21 01:06:14;;;;;;;1.55;1.02;;;13.00;99.90;;;;;;5018259;28;20040;-55
2023/10/21 01:08:44;;;;;;;2.53;0.93;;;13.00;99.90;;;;;;5035885;28;20423;-55
2023/10/21 01:11:10;;;;;;;;;;;13.00;99.90;;;;;;5036109;28;20041;-55
2023/10/21 01:13:35;;;;;;;2.17;0.90;;;13.00;99.90;;;;;;5019033;28;19913;-53
2023/10/21 01:16:01;;;;;;;2.58;0.90;;;13.10;99.90;;;;;;5021404;28;20052;-51
2023/10/21 01:18:30;;;;;;;2.38;1.08;;;13.10;99.90;;;;;;5022608;28;20033;-54
2023/10/21 01:20:56;;;;;;;0.65;0.60;;;13.10;99.90;;;;;;5022376;28;20033;-53
2023/10/21 01:23:21;;;;;;;2.40;0.80;;;13.20;99.90;;;;;;5040965;28;20116;-55
2023/10/21 01:25:47;;;;;;;1.23;0.90;;;13.10;99.90;;;;;;5022489;28;20049;-54
2023/10/21 01:28:14;;;;;;;1.38;0.70;;;13.10;99.90;;;;;;5022321;28;20069;-51
2023/10/21 01:30:39;;;;;;;1.58;0.60;;;13.20;99.90;;;;;;5022500;28;20035;-53
2023/10/21 01:33:05;;;;;;;2.72;1.00;;;13.20;99.90;;;;;;5022134;28;20033;-55
2023/10/21 01:35:30;;;;;;;1.25;0.68;;;13.30;99.90;;;;;;5022229;28;20048;-52
2023/10/21 01:37:56;;;;;;;0.98;0.63;;;13.30;99.90;;;;;;5021689;28;20033;-53
2023/10/21 01:40:21;;;;;;;1.48;0.50;;;13.30;99.90;;;;;;5022059;28;20033;-53
2023/10/21 01:42:47;;;;;;;2.80;0.90;;;13.30;99.90;;;;;;5040129;28;20083;-53
2023/10/21 01:45:14;;;;;;;1.23;0.88;;;13.30;99.90;;;;;;5020975;28;20049;-54
2023/10/21 01:47:40;;;;;;;1.75;0.50;;;13.30;99.90;;;;;;5022068;28;20482;-54
2023/10/21 01:50:09;;;;;;;1.88;0.80;;;13.30;99.90;;;;;;5005193;28;20025;-53
2023/10/21 01:52:35;;;;;;;;;;;13.40;99.90;;;;;;5023117;28;20038;-54
2023/10/21 01:55:10;;;;;;;1.20;0.80;;;13.40;99.90;;;;;;5038911;28;19909;-51
2023/10/21 01:57:36;;;;;;;2.35;0.90;;;13.40;99.90;;;;;;5021990;28;20030;-54
2023/10/21 02:00:18;;;;;;;0.68;0.60;;;13.40;99.90;;;;;;5021442;28;20056;-55
2023/10/21 02:02:48;;;;;;;1.55;0.63;;;13.40;99.90;;;;;;5021453;28;20060;-51
2023/10/21 02:05:14;;;;;;;2.47;0.90;;;13.40;99.90;;;;;;5020617;28;20044;-54
2023/10/21 02:07:40;;;;;;;1.55;0.85;;;13.30;99.90;;;;;;5021468;28;20256;-54
2023/10/21 02:10:06;;;;;;;2.50;0.82;;;13.40;99.90;;;;;;5021622;28;20040;-51
2023/10/21 02:12:32;;;;;;;4.35;0.70;;;13.40;99.90;;;;;;5021474;28;20033;-55
2023/10/21 02:14:57;;;;;;;0.55;0.52;;;13.40;99.90;;;;;;5021186;28;20033;-53
2023/10/21 02:17:23;;;;;;;1.20;0.80;;;13.40;99.90;;;;;;5021101;28;20033;-53
2023/10/21 02:19:56;;;;;;;2.63;0.70;;;13.40;99.90;;;;;;5021259;28;20056;-55
2023/10/21 02:22:23;;;;;;;1.98;0.60;;;13.50;99.90;;;;;;5021153;28;20026;-54
2023/10/21 02:24:50;;;;;;;5.53;0.73;;;13.50;99.90;;;;;;5036966;28;20030;-55
2023/10/21 02:27:15;;;;;;;1.13;0.77;;;13.50;99.90;;;;;;5021071;28;20034;-54
2023/10/21 02:29:42;;;;;;;0.47;0.47;;;13.50;99.90;;;;;;5038568;28;20172;-53
2023/10/21 02:32:07;;;;;;;1.20;0.80;;;13.40;99.90;;;;;;5038625;28;20169;-54
2023/10/21 02:34:33;;;;;;;1.30;0.70;;;13.40;99.90;;;;;;5020194;28;20497;-53
2023/10/21 02:36:59;;;;;;;1.38;0.80;;;13.40;99.90;;;;;;5037045;28;20064;-53
2023/10/21 02:39:24;;;;;;;1.73;0.80;;;13.30;99.90;;;;;;5020660;28;20095;-51
2023/10/21 02:41:50;;;;;;;3.13;1.02;;;13.30;99.90;;;;;;5021384;28;20029;-53
2023/10/21 02:44:16;;;;;;;1.75;0.82;;;13.30;99.90;;;;;;5038283;28;20087;-54
2023/10/21 02:46:41;;;;;;;1.45;0.73;;;13.40;99.90;;;;;;5038331;28;20030;-53
2023/10/21 02:49:07;;;;;;;2.08;0.82;;;13.40;99.90;;;;;;5020864;28;20069;-54
2023/10/21 02:51:32;;;;;;;3.45;0.95;;;13.40;99.90;;;;;;5021291;28;20125;-54
2023/10/21 02:53:58;;;;;;;1.00;0.80;;;13.40;99.90;;;;;;5021079;28;20069;-53
2023/10/21 02:56:24;;;;;;;1.10;0.90;;;13.40;99.90;;;;;;5021240;28;20033;-52
2023/10/21 02:58:49;;;;;;;2.28;0.90;;;13.40;99.90;;;;;;5020988;28;20025;-54
2023/10/21 03:01:18;;;;;;;1.38;0.93;;;13.30;99.90;;;;;;5021175;28;20051;-54
2023/10/21 03:03:47;;;;;;;2.45;1.05;;;13.30;99.90;;;;;;5021447;28;20111;-52
2023/10/21 03:06:15;;;;;;;1.83;1.13;;;13.30;99.90;;;;;;5039137;28;20080;-53
2023/10/21 03:08:41;;;;;;;2.35;1.20;;;13.30;99.90;;;;;;5005296;28;20038;-53
2023/10/21 03:11:08;;;;;;;3.78;1.67;;;13.30;99.90;;;;;;5021180;28;20042;-53
2023/10/21 03:13:36;;;;;;;3.58;1.30;;;13.30;99.90;;;;;;5021529;28;20037;-53
2023/10/21 03:16:09;;;;;;;4.53;1.30;;;13.30;99.90;;;;;;5021288;28;20486;-54
2023/10/21 03:18:36;;;;;;;4.65;1.50;;;13.30;99.90;;;;;;5021520;28;20044;-53
2023/10/21 03:21:06;;;;;;;3.92;1.40;;;13.30;99.90;;;;;;5021559;28;20052;-54
2023/10/21 03:23:32;;;;;;;2.72;1.52;;;13.30;99.90;;;;;;5039231;28;20029;-53
2023/10/21 03:26:00;;;;;;;4.85;1.13;;;13.30;99.90;;;;;;5039778;28;20418;-55
2023/10/21 03:28:26;;;;;;;4.38;1.50;;;13.30;99.90;;;;;;5021796;28;20037;-55
2023/10/21 03:30:59;;;;;;;2.33;1.33;;;13.20;99.90;;;;;;5022571;28;20075;-51
2023/10/21 03:33:26;;;;;;;3.72;1.05;;;13.30;99.90;;;;;;5039631;28;20038;-54
2023/10/21 03:35:57;;;;;;;4.50;1.60;;;13.30;99.90;;;;;;5039244;28;20386;-52
2023/10/21 03:38:23;;;;;;;2.85;1.25;;;13.40;99.90;;;;;;5038803;28;20022;-55
2023/10/21 03:41:05;;;;;;;4.72;1.45;;;13.40;99.90;;;;;;5021212;28;20021;-54
2023/10/21 03:43:31;;;;;;;2.15;1.10;;;13.40;99.90;;;;;;5039107;28;20033;-55
2023/10/21 03:46:01;;;;;;;2.30;1.23;;;13.30;99.90;;;;;;5021130;28;20052;-55
2023/10/21 03:48:27;;;;;;;1.88;1.13;;;13.30;99.90;;;;;;5038893;28;20103;-53
2023/10/21 03:50:53;;;;;;;1.35;1.05;;;13.30;99.90;;;;;;5021886;28;20470;-54
2023/10/21 03:53:18;;;;;;;3.60;1.23;;;13.30;99.90;;;;;;5004935;28;20030;-55
2023/10/21 03:55:44;;;;;;;3.95;1.40;;;13.30;99.90;;;;;;5038689;28;20446;-54
2023/10/21 03:58:11;;;;;;;2.60;1.33;;;13.40;99.90;;;;;;5038429;28;20029;-54
2023/10/21 04:00:37;;;;;;;4.18;1.80;;;13.40;99.90;;;;;;5020558;28;20026;-54
2023/10/21 04:03:03;;;;;;;4.57;1.42;;;13.40;99.90;;;;;;5038081;28;20033;-55
2023/10/21 04:05:30;;;;;;;3.58;1.30;;;13.40;99.90;;;;;;5038755;28;20312;-52
2023/10/21 04:07:55;;;;;;;2.53;1.65;;;13.40;99.90;;;;;;5037645;28;20044;-56
2023/10/21 04:10:21;;;;;;;6.72;1.45;;;13.40;99.90;;;;;;5020248;28;20041;-56
2023/10/21 04:12:47;;;;;;;2.55;1.50;;;13.40;99.90;;;;;;5038496;28;20113;-56
2023/10/21 04:15:14;;;;;;;4.25;1.70;;;13.40;99.90;;;;;;5037736;28;20073;-55
2023/10/21 04:17:40;;;;;;;4.38;1.40;;;13.40;99.90;;;;;;5037636;28;20263;-54
2023/10/21 04:20:06;;;;;;;3.38;1.80;;;13.40;99.90;;;;;;5038120;28;20073;-56
2023/10/21 04:22:32;;;;;;;3.97;1.45;;;13.40;99.90;;;;;;5038561;28;20034;-55
2023/10/21 04:24:58;;;;;;;2.08;1.30;;;13.40;99.90;;;;;;5038256;28;20586;-55
2023/10/21 04:27:24;;;;;;;2.00;1.33;;;13.50;99.90;;;;;;5038523;28;20056;-55
2023/10/21 04:29:49;;;;;;;4.82;1.70;;;13.50;99.90;;;;;;5037800;28;20100;-55
2023/10/21 04:32:15;;;;;;;3.58;2.10;;;13.50;99.90;;;;;;5038533;28;20484;-55
2023/10/21 04:34:41;;;;;;;3.35;1.80;;;13.50;99.90;;;;;;5037930;28;20032;-56
2023/10/21 04:37:06;;;;;;;3.00;1.70;;;13.50;99.90;;;;;;5020855;28;20060;-55
2023/10/21 04:39:33;;;;;;;2.70;1.58;;;13.50;99.90;;;;;;5037910;28;20029;-55
2023/10/21 04:41:58;;;;;;;10.43;2.03;;;13.50;99.90;;;;;;5038223;28;20025;-55
2023/10/21 04:44:24;;;;;;;3.85;1.60;;;13.50;99.90;;;;;;5038468;28;20030;-54
2023/10/21 04:46:50;;;;;;;5.13;1.65;;;13.50;99.90;;;;;;5038671;28;20038;-56
2023/10/21 04:49:15;;;;;;;4.72;1.77;;;13.50;99.90;;;;;;5037563;28;20478;-56
2023/10/21 04:51:41;;;;;;;4.00;1.65;;;13.50;99.90;;;;;;5020047;28;20040;-51
2023/10/21 04:54:10;;;;;;;6.07;1.63;;;13.50;99.90;;;;;;5037936;28;20029;-54
2023/10/21 04:56:35;;;;;;;7.20;2.03;;;13.50;99.90;;;;;;5020862;28;20030;-55
2023/10/21 04:59:01;;;;;;;4.07;2.10;;;13.50;99.90;;;;;;5037667;28;20044;-54
2023/10/21 05:01:27;;;;;;;5.35;2.60;;;13.50;99.90;;;;;;5037503;28;20030;-54
2023/10/21 05:03:52;;;;;;;7.00;2.53;;;13.50;99.90;;;;;;5020181;28;20041;-56
2023/10/21 05:06:18;;;;;;;11.20;4.90;;;13.50;99.90;;;;;;5036864;28;20029;-55
2023/10/21 05:08:43;;;;;;;2.78;1.75;;;13.50;99.90;;;;;;5037567;28;20041;-54
2023/10/21 05:11:09;;;;;;;3.58;2.00;;;13.60;99.90;;;;;;5037573;28;20037;-55
2023/10/21 05:13:35;;;;;;;2.90;1.60;;;13.70;99.90;;;;;;5037722;28;20037;-55
2023/10/21 05:16:00;;;;;;;3.53;1.80;;;13.60;99.90;;;;;;5037348;28;20049;-56
2023/10/21 05:18:26;;;;;;;2.85;1.63;;;13.70;99.90;;;;;;5020103;28;20030;-55
2023/10/21 05:20:52;;;;;;;4.93;1.70;;;13.70;99.90;;;;;;5003988;28;20205;-54
2023/10/21 05:23:18;;;;;;;4.50;1.75;;;13.70;99.90;;;;;;5037364;28;20029;-56
2023/10/21 05:25:44;;;;;;;4.75;1.70;;;13.60;99.90;;;;;;5036512;28;20048;-56
2023/10/21 05:28:10;;;;;;;4.95;1.77;;;13.50;99.90;;;;;;5037590;28;20047;-56
2023/10/21 05:30:37;;;;;;;2.55;1.60;;;13.60;99.90;;;;;;5038119;28;20033;-56
2023/10/21 05:33:04;;;;;;;5.03;2.33;;;13.60;99.90;;;;;;5037537;28;20186;-56
2023/10/21 05:35:29;;;;;;;5.72;2.30;;;13.50;99.90;;;;;;5037459;28;20083;-56
2023/10/21 05:37:55;;;;;;;4.68;1.85;;;13.50;99.90;;;;;;5038296;28;20021;-55
2023/10/21 05:40:21;;;;;;;3.95;2.08;;;13.50;99.90;;;;;;5037760;28;20026;-56
2023/10/21 05:42:47;;;;;;;4.28;1.95;;;13.40;99.90;;;;;;5037964;28;20029;-55
2023/10/21 05:45:12;;;;;;;6.05;1.92;;;13.40;99.90;;;;;;5019854;28;20033;-53
2023/10/21 05:47:38;;;;;;;3.67;1.90;;;13.30;99.90;;;;;;5037679;28;20026;-56
2023/10/21 05:50:05;;;;;;;3.58;2.10;;;13.30;99.90;;;;;;5019739;28;20033;-56
2023/10/21 05:52:31;;;;;;;3.75;1.90;;;13.30;99.90;;;;;;5037425;28;20045;-56
2023/10/21 05:54:56;;;;;;;3.90;1.92;;;13.20;99.90;;;;;;5019364;28;20124;-55
2023/10/21 05:57:22;;;;;;;4.35;1.98;;;13.30;99.90;;;;;;5020297;28;20038;-54
2023/10/21 05:59:48;;;;;;;4.40;2.00;;;13.30;99.90;;;;;;5038994;28;20049;-55
2023/10/21 06:02:13;;;;;;;4.18;1.90;;;13.30;99.90;;;;;;5023364;28;20041;-56
2023/10/21 06:04:39;;;;;;;5.43;1.70;;;13.30;99.90;;;;;;5040180;28;20030;-56
2023/10/21 06:07:05;;;;;;;4.85;2.25;;;13.20;99.90;;;;;;5040492;28;20482;-55
2023/10/21 06:09:31;;;;;;;4.15;2.20;;;13.30;99.90;;;;;;5039965;28;20557;-53
2023/10/21 06:11:57;;;;;;;3.25;1.60;;;13.20;99.90;;;;;;5040104;28;20033;-56
2023/10/21 06:14:23;;;;;;;2.72;1.60;;;13.20;99.90;;;;;;5039944;28;20053;-55
2023/10/21 06:16:48;;;;;;;4.55;1.98;;;13.30;99.90;;;;;;5040205;28;20029;-56
2023/10/21 06:19:16;;;;;;;4.95;2.17;;;13.20;99.90;;;;;;5039710;28;20094;-56
2023/10/21 06:21:42;;;;;;;3.97;1.70;;;13.30;99.90;;;;;;5022119;28;20026;-54
2023/10/21 06:24:08;;;;;;;4.43;2.00;;;13.20;99.90;;;;;;5022181;28;20530;-55
2023/10/21 06:26:34;;;;;;;4.05;2.08;;;13.10;99.90;;;;;;5022943;28;20052;-51
2023/10/21 06:29:00;;;;;;;6.03;2.65;;;13.10;99.90;;;;;;5022381;28;20037;-56
2023/10/21 06:31:29;;;;;;;4.32;2.03;;;13.20;99.90;;;;;;5039858;28;20080;-55
2023/10/21 06:33:54;;;;;;;6.30;2.25;;;13.20;99.90;;;;;;5021473;28;20522;-56
2023/10/21 06:36:20;;;;;;;7.00;2.72;;;13.20;99.90;;;;;;5039209;28;20049;-56
2023/10/21 06:38:49;;;;;;;6.57;2.75;;;13.20;99.90;;;;;;5039557;28;20040;-55
2023/10/21 06:41:15;;;;;;;7.00;2.40;;;13.20;99.90;;;;;;5039682;28;20155;-55
2023/10/21 06:43:41;;;;;;;3.78;2.08;;;13.30;99.90;;;;;;5021583;28;20398;-54
2023/10/21 06:46:07;;;;;;;4.28;1.83;;;13.30;99.90;;;;;;5021679;28;20037;-55
2023/10/21 06:48:32;;;;;;;3.88;2.10;;;13.30;99.90;;;;;;5021235;28;20445;-55
2023/10/21 06:50:59;;;;;;;4.63;2.47;;;13.40;99.90;;;;;;5039187;28;20041;-55
2023/10/21 06:53:27;;;;;;;4.18;1.88;;;13.40;99.90;;;;;;5039516;28;20045;-54
2023/10/21 06:55:53;;;;;;;3.70;1.92;;;13.40;99.90;;;;;;5021385;28;20026;-53
2023/10/21 06:58:22;;;;;;;4.75;2.28;;;13.50;99.90;;;;;;5038361;28;20083;-54
2023/10/21 07:00:48;;;;;;;3.97;2.13;;;13.50;99.90;;;;;;5038535;28;20033;-55
2023/10/21 07:03:14;;;;;;;3.85;2.10;;;13.50;99.90;;;;;;5021795;28;20061;-53
2023/10/21 07:05:40;;;;;;;3.92;2.13;;;13.60;99.90;;;;;;5039213;28;20045;-53
2023/10/21 07:08:06;;;;;;;4.82;2.00;;;13.60;99.90;;;;;;5039844;28;20053;-54
2023/10/21 07:10:32;;;;;;;6.07;2.00;;;13.60;99.90;;;;;;5038545;28;20536;-55
2023/10/21 07:12:59;;;;;;;4.63;1.73;;;13.60;99.90;;;;;;5038512;28;20049;-53
2023/10/21 07:15:31;;;;;;;3.05;1.52;;;13.70;99.90;;;;;;5038515;28;20030;-54
2023/10/21 07:17:57;;;;;;;3.28;1.85;;;13.70;99.90;;;;;;5039066;28;20044;-55
2023/10/21 07:20:24;;;;;;;3.05;1.55;;;13.70;99.90;;;;;;5038789;28;20029;-54
2023/10/21 07:22:51;;;;;;;3.63;1.45;;;13.80;99.90;;;;;;5038991;28;20494;-55
2023/10/21 07:25:19;;;;;;;3.47;1.45;;;13.80;99.90;;;;;;5020919;28;20037;-54
2023/10/21 07:27:46;;;;;;;4.03;1.52;;;13.80;99.90;;;;;;5038863;28;20038;-55
2023/10/21 07:30:12;;;;;;;1.88;1.33;;;13.90;99.90;;;;;;5038014;28;20056;-55
2023/10/21 07:32:38;;;;;;;3.58;1.30;;;13.90;99.90;;;;;;5038698;28;20060;-55
2023/10/21 07:35:04;;;;;;;3.42;1.00;;;13.90;99.90;;;;;;5020347;28;20494;-51
2023/10/21 07:37:30;;;;;;;3.38;1.20;;;13.90;99.90;;;;;;5038918;28;20029;-54
2023/10/21 07:39:58;;;;;;;2.08;1.15;;;13.90;99.90;;;;;;5038072;28;20053;-55
2023/10/21 07:42:24;;;;;;;3.92;1.20;;;14.00;99.90;;;;;;5038653;28;20037;-55
2023/10/21 07:44:50;;;;;;;2.25;1.25;;;14.00;99.90;;;;;;5038442;28;20446;-52
2023/10/21 07:47:16;;;;;;;1.98;1.27;;;14.00;99.90;;;;;;5038434;28;20052;-55
2023/10/21 07:49:41;;;;;;;2.42;1.15;;;14.10;99.90;;;;;;5037837;28;20033;-55
2023/10/21 07:52:07;;;;;;;2.15;1.20;;;14.10;99.90;;;;;;5038590;28;20120;-55
2023/10/21 07:54:34;;;;;;;2.72;1.40;;;14.10;99.90;;;;;;5037398;28;20321;-52
2023/10/21 07:57:00;;;;;;;1.05;0.90;;;14.20;99.90;;;;;;5037992;28;20040;-55
2023/10/21 07:59:27;;;;;;;3.50;0.90;;;14.20;99.90;;;;;;5037247;28;20029;-54
2023/10/21 08:01:54;;;;;;;3.20;1.40;;;14.20;99.90;;;;;;5038006;28;20083;-52
2023/10/21 08:04:19;;;;;;;3.25;1.02;;;14.20;99.90;;;;;;5020041;28;20116;-55
2023/10/21 08:06:46;;;;;;;31.90;14.43;;;14.20;99.90;;;;;;5003577;28;20466;-54
2023/10/21 08:09:15;;;;;;;29.02;14.18;;;14.20;99.90;;;;;;5037265;28;20478;-53
2023/10/21 08:11:42;;;;;;;3.63;2.38;;;14.20;99.90;;;;;;5038419;28;20092;-54
2023/10/21 08:14:07;;;;;;;2.53;0.90;;;14.20;99.90;;;;;;5037811;28;20083;-54
2023/10/21 08:16:34;;;;;;;5.07;0.75;;;14.30;99.90;;;;;;5037915;28;20458;-51
2023/10/21 08:19:00;;;;;;;2.72;1.02;;;14.30;99.90;;;;;;5037731;28;20026;-54
2023/10/21 08:21:27;;;;;;;2.47;0.88;;;14.30;99.90;;;;;;5038397;28;20030;-53
2023/10/21 08:23:53;;;;;;;1.77;0.68;;;14.50;99.90;;;;;;5037672;28;20091;-53
2023/10/21 08:26:19;;;;;;;2.65;0.88;;;14.50;99.90;;;;;;5037992;28;20029;-53
2023/10/21 08:28:44;;;;;;;0.55;0.38;;;14.70;99.90;;;;;;5037567;28;20060;-55
2023/10/21 08:31:10;;;;;;;1.13;0.60;;;14.80;99.90;;;;;;5020638;28;20037;-53
2023/10/21 08:33:35;;;;;;;0.57;0.35;;;14.90;99.90;;;;;;5020794;28;20497;-52
2023/10/21 08:36:01;;;;;;;0.20;0.20;;;14.90;99.90;;;;;;5038458;28;20406;-53
2023/10/21 08:38:27;;;;;;;1.23;0.32;;;14.80;99.90;;;;;;5037843;28;20033;-54
2023/10/21 08:40:53;;;;;;;1.05;0.43;;;14.70;99.90;;;;;;5038177;28;20021;-52
2023/10/21 08:43:19;;;;;;;1.10;0.25;;;14.80;99.90;;;;;;5038148;28;20112;-52
2023/10/21 08:45:45;;;;;;;0.52;0.30;;;14.90;99.90;;;;;;5037879;28;20055;-53
2023/10/21 08:48:15;;;;;;;0.70;0.40;;;14.90;99.90;;;;;;5038243;28;20099;-55
2023/10/21 08:50:43;;;;;;;1.48;0.35;;;14.90;99.90;;;;;;5003544;28;20071;-54
2023/10/21 08:53:11;;;;;;;1.60;0.60;;;15.10;99.90;;;;;;5037648;28;20043;-52
2023/10/21 08:55:38;;;;;;;0.20;0.20;;;15.20;99.90;;;;;;5037274;28;20026;-54
2023/10/21 08:58:06;;;;;;;1.13;0.47;;;15.30;99.90;;;;;;5037671;28;20029;-54
2023/10/21 09:00:33;;;;;;;3.60;1.40;;;15.30;99.90;;;;;;5036899;28;20037;-54
2023/10/21 09:02:59;;;;;;;0.88;0.40;;;15.20;99.90;;;;;;5037519;28;20038;-53
2023/10/21 09:05:24;;;;;;;1.45;0.47;;;15.20;99.90;;;;;;5019963;28;20048;-52
2023/10/21 09:07:50;;;;;;;0.20;0.20;;;15.20;99.90;;;;;;5020139;28;20044;-53
2023/10/21 09:10:17;;;;;;;1.08;0.30;;;15.30;99.90;;;;;;5037350;28;20041;-52
2023/10/21 09:12:43;;;;;;;0.57;0.20;;;15.60;99.90;;;;;;5020265;28;20072;-52
2023/10/21 09:15:09;;;;;;;4.90;2.33;;;15.60;99.90;;;;;;5037327;28;20079;-52
2023/10/21 09:17:45;;;;;;;4.55;2.00;;;15.70;99.90;;;;;;5037076;28;20029;-50
2023/10/21 09:20:13;;;;;;;0.95;0.47;;;15.70;99.90;;;;;;5019308;28;20026;-53
2023/10/21 09:22:40;;;;;;;0.30;0.28;;;15.80;99.90;;;;;;5037318;28;20052;-53
2023/10/21 09:25:15;;;;;;;1.00;0.30;;;15.90;99.90;;;;;;5020006;28;20434;-53
2023/10/21 09:27:42;;;;;;;1.05;0.32;;;15.80;99.90;;;;;;5037666;28;20025;-53
2023/10/21 09:30:14;;;;;;;0.75;0.28;;;15.80;99.90;;;;;;5036653;28;20044;-54
2023/10/21 09:32:41;;;;;;;1.58;0.20;;;15.70;99.90;;;;;;5036568;28;20034;-51
2023/10/21 09:35:24;;;;;;;0.77;0.40;;;15.60;99.90;;;;;;5039471;28;20057;-52
2023/10/21 09:37:50;;;;;;;0.63;0.32;;;15.50;99.90;;;;;;5023129;28;20033;-51
2023/10/21 09:40:17;;;;;;;1.88;0.35;;;15.40;99.90;;;;;;5040625;28;20286;-53
2023/10/21 09:42:43;;;;;;;0.52;0.20;;;15.30;99.90;;;;;;5040465;28;20036;-52
2023/10/21 09:45:11;;;;;;;0.28;0.20;;;15.30;99.90;;;;;;5040882;28;20030;-51
2023/10/21 09:47:41;;;;;;;0.43;0.20;;;15.20;99.90;;;;;;5040883;28;20036;-50
2023/10/21 09:50:11;;;;;;;3.65;0.80;;;15.20;99.90;;;;;;5039414;28;20029;-53
2023/10/21 09:52:57;;;;;;;1.98;0.82;;;15.20;99.90;;;;;;5040108;28;20426;-53
2023/10/21 09:55:28;;;;;;;0.60;0.30;;;15.40;99.90;;;;;;5021622;28;20052;-53
2023/10/21 09:57:54;;;;;;;0.20;0.17;;;15.80;99.90;;;;;;5038060;28;20045;-55
2023/10/21 10:00:21;;;;;;;2.10;0.50;;;15.90;99.90;;;;;;5019047;28;20036;-56
2023/10/21 10:02:48;;;;;;;2.55;0.40;;;15.70;99.90;;;;;;5039358;28;20075;-56
2023/10/21 10:05:16;;;;;;;1.80;0.40;;;15.40;99.90;;;;;;5020675;28;20034;-56
2023/10/21 10:07:45;;;;;;;1.67;0.40;;;15.30;99.90;;;;;;5039743;28;20489;-55
2023/10/21 10:10:13;;;;;;;0.80;0.40;;;15.40;99.90;;;;;;5039993;28;20034;-53
2023/10/21 10:12:46;;;;;;;0.80;0.30;;;15.90;99.90;;;;;;5040270;28;20041;-56
2023/10/21 10:15:38;;;;;;;1.13;0.35;;;16.50;99.90;;;;;;5022340;28;20040;-55
2023/10/21 10:18:18;;;;;;;0.22;0.20;;;17.00;99.90;;;;;;5040323;28;20025;-56
2023/10/21 10:20:46;;;;;;;0.93;0.40;;;17.70;99.90;;;;;;5039906;28;20037;-55
2023/10/21 10:23:12;;;;;;;1.65;0.22;;;18.20;99.90;;;;;;5040247;28;20037;-55
2023/10/21 10:25:42;;;;;;;0.30;0.20;;;18.80;99.90;;;;;;5022413;28;20140;-55
2023/10/21 10:28:14;;;;;;;0.88;0.35;;;19.20;99.90;;;;;;5040045;28;20040;-54
2023/10/21 10:30:43;;;;;;;1.10;0.40;;;18.60;99.90;;;;;;5039449;28;20029;-55
2023/10/21 10:33:13;;;;;;;1.30;0.50;;;18.10;99.90;;;;;;5039404;28;20044;-55
2023/10/21 10:35:42;;;;;;;0.30;0.25;;;17.90;99.90;;;;;;5038878;28;20478;-55
2023/10/21 10:38:20;;;;;;;1.60;0.50;;;17.90;99.90;;;;;;5039473;28;20034;-54
2023/10/21 10:40:46;;;;;;;1.90;0.63;;;17.80;99.90;;;;;;5039400;28;20029;-55
2023/10/21 10:43:16;;;;;;;1.10;0.30;;;17.80;99.90;;;;;;5039497;28;20036;-55
2023/10/21 10:45:42;;;;;;;3.08;0.70;;;17.50;99.90;;;;;;5038251;28;20120;-55
2023/10/21 10:48:08;;;;;;;0.43;0.30;;;17.40;99.90;;;;;;5038941;28;20069;-54
2023/10/21 10:50:38;;;;;;;1.55;0.57;;;17.30;99.90;;;;;;5039400;28;20029;-53
2023/10/21 10:53:20;;;;;;;1.38;0.40;;;17.10;99.90;;;;;;5038526;28;20044;-55
2023/10/21 10:55:54;;;;;;;0.55;0.30;;;17.00;99.90;;;;;;5037871;28;20026;-55
2023/10/21 10:58:21;;;;;;;3.08;1.00;;;16.90;99.90;;;;;;5037927;28;20033;-55
2023/10/21 11:00:48;;;;;;;4.35;0.65;;;17.10;99.90;;;;;;5038413;28;20034;-55
2023/10/21 11:03:27;;;;;;;1.25;0.50;;;17.00;99.90;;;;;;5020537;28;20321;-55
2023/10/21 11:05:55;;;;;;;;;;;17.00;99.90;;;;;;5037895;28;20118;-55
2023/10/21 11:08:21;;;;;;;0.88;0.30;;;16.70;99.90;;;;;;5036996;28;19932;-54
2023/10/21 11:10:47;;;;;;;1.13;0.60;;;16.60;99.90;;;;;;5036812;28;20088;-55
2023/10/21 11:13:13;;;;;;;1.00;0.30;;;16.50;99.90;;;;;;5037726;28;20397;-55
2023/10/21 11:15:44;;;;;;;1.25;0.22;;;16.50;99.90;;;;;;5037623;28;20034;-53
2023/10/21 11:18:13;;;;;;;1.33;0.40;;;16.60;99.90;;;;;;5003494;28;20478;-55
2023/10/21 11:20:52;;;;;;;1.08;0.30;;;16.90;99.90;;;;;;5037015;28;20182;-55
2023/10/21 11:23:19;;;;;;;1.40;0.45;;;17.10;99.90;;;;;;5037266;28;20120;-54
2023/10/21 11:25:50;;;;;;;2.85;0.60;;;17.30;99.90;;;;;;5019215;28;20494;-54
2023/10/21 11:28:17;;;;;;;0.55;0.30;;;17.20;99.90;;;;;;5037450;28;20037;-54
2023/10/21 11:30:44;;;;;;;0.95;0.20;;;16.90;99.90;;;;;;5037591;28;20033;-55
2023/10/21 11:33:10;;;;;;;0.88;0.30;;;16.90;99.90;;;;;;5037715;28;20065;-54
2023/10/21 11:35:39;;;;;;;2.00;0.40;;;17.30;99.90;;;;;;5037526;28;20052;-53
2023/10/21 11:38:06;;;;;;;1.42;0.25;;;18.10;99.90;;;;;;5038031;28;20045;-53
2023/10/21 11:40:35;;;;;;;1.10;0.50;;;18.70;99.90;;;;;;5020874;28;20069;-55
2023/10/21 11:43:01;;;;;;;;;;;19.30;99.90;;;;;;5038933;28;20068;-55
2023/10/21 11:45:30;;;;;;;1.85;0.30;;;19.30;99.90;;;;;;5038473;28;19909;-54
2023/10/21 11:47:58;;;;;;;1.75;0.43;;;19.20;99.90;;;;;;5038029;28;20048;-56
2023/10/21 11:50:32;;;;;;;1.42;0.40;;;19.30;99.90;;;;;;5037650;28;20029;-56
2023/10/21 11:53:03;;;;;;;1.02;0.50;;;19.60;99.90;;;;;;5037675;28;20029;-56
2023/10/21 12:07:19;;;;;;;1.10;0.38;;;18.90;99.90;;;;;;5037684;28;20036;-55
2023/10/21 12:28:14;;;;;;;1.50;0.40;;;18.00;99.90;;;;;;5036546;28;20057;-53
2023/10/21 12:31:26;;;;;;;1.50;0.40;;;18.70;99.90;;;;;;5018990;28;20029;-54
2023/10/21 12:41:53;;;;;;;1.98;0.50;;;19.90;98.90;;;;;;5024020;28;20037;-55
2023/10/21 12:44:23;;;;;;;3.08;0.52;;;19.90;97.90;;;;;;5036988;28;20374;-56
2023/10/21 12:46:59;;;;;;;1.02;0.40;;;19.50;98.70;;;;;;5036969;28;20041;-56
2023/10/21 12:49:27;;;;;;;2.40;0.60;;;19.10;99.20;;;;;;5036522;28;20393;-54
2023/10/21 12:51:56;;;;;;;1.45;0.50;;;19.00;99.50;;;;;;5036645;28;20090;-55
2023/10/21 12:54:22;;;;;;;1.45;0.50;;;18.70;99.40;;;;;;5036243;28;20030;-56
2023/10/21 12:56:50;;;;;;;1.25;0.47;;;18.40;99.60;;;;;;5035997;28;20040;-55
2023/10/21 12:59:16;;;;;;;0.60;0.30;;;18.60;98.90;;;;;;5035631;28;20035;-55
2023/10/21 13:01:42;;;;;;;3.42;0.73;;;19.10;99.40;;;;;;5036254;28;20431;-54
2023/10/21 13:04:09;;;;;;;5.03;0.88;;;19.30;98.10;;;;;;5036359;28;20470;-55
2023/10/21 13:06:35;;;;;;;1.50;0.60;;;19.20;97.40;;;;;;5036496;28;20444;-54
2023/10/21 13:09:00;;;;;;;5.60;1.17;;;18.90;97.30;;;;;;5018669;28;20084;-55
2023/10/21 13:11:27;;;;;;;3.60;1.00;;;19.10;97.30;;;;;;5040495;28;20048;-55
2023/10/21 13:13:53;;;;;;;2.63;0.80;;;19.10;96.40;;;;;;5022349;28;20120;-54
2023/10/21 13:16:19;;;;;;;4.25;0.95;;;19.00;96.90;;;;;;5040270;28;20616;-55
2023/10/21 13:18:45;;;;;;;1.92;0.70;;;19.30;96.70;;;;;;5040221;28;20146;-55
2023/10/21 13:21:10;;;;;;;2.47;0.85;;;19.80;95.30;;;;;;5040395;28;20032;-52
2023/10/21 13:23:36;;;;;;;5.90;0.88;;;20.50;94.60;;;;;;5040741;28;20382;-55
2023/10/21 13:26:06;;;;;;;3.72;1.10;;;21.20;93.70;;;;;;5039714;28;20030;-55